Terminal Aerodrome Forecast
Issued by NWS

Home | Current Version | Previous Version | Graphics & Text | Print | Product List | Glossary On
Versions: 1 2 3 4 5 6 7 8 9 10 11 12 13 14 15 16 17
000
FTUS43 KFGF 131720
TAFBJI
TAF
KBJI 131720Z 1318/1418 16008KT P6SM OVC025
      TEMPO 1320/1323 4SM -SHRA OVC015
     FM132300 13007KT P6SM VCSH BKN025
     FM140500 11005KT P6SM BKN015=

USA.gov is the U.S. government's official web portal to all federal, state and local government web resources and services.